createdAt,value
2022-12-18T00:00:44.695Z,83.67
2022-12-18T00:05:13.731Z,83.82
2022-12-18T00:09:24.650Z,83.79
2022-12-18T00:13:33.125Z,83.59
2022-12-18T00:17:40.812Z,83.60
2022-12-18T00:21:49.047Z,83.45
2022-12-18T00:25:57.395Z,83.41
2022-12-18T00:30:08.053Z,83.20
2022-12-18T00:34:17.333Z,83.55
2022-12-18T00:38:25.336Z,83.64
2022-12-18T00:42:50.333Z,83.50
2022-12-18T00:46:59.132Z,83.60
2022-12-18T00:51:08.000Z,83.38
2022-12-18T00:55:16.746Z,83.35
2022-12-18T00:59:24.808Z,83.34
2022-12-18T01:03:33.496Z,83.32
2022-12-18T01:07:42.138Z,83.18
2022-12-18T01:11:49.924Z,83.14
2022-12-18T01:15:57.679Z,83.21
2022-12-18T01:20:06.103Z,83.14
2022-12-18T01:24:15.813Z,82.80
2022-12-18T01:28:23.864Z,83.09
2022-12-18T01:32:33.610Z,83.33
2022-12-18T01:36:42.121Z,83.37
2022-12-18T01:40:50.010Z,83.01
2022-12-18T01:45:04.870Z,82.90
2022-12-18T01:49:12.887Z,82.77
2022-12-18T01:53:23.813Z,82.65
2022-12-18T01:57:33.015Z,82.59
2022-12-18T02:01:41.703Z,82.30
2022-12-18T02:05:52.169Z,82.61
2022-12-18T02:10:05.122Z,82.81
2022-12-18T02:14:24.439Z,82.86
2022-12-18T02:18:35.420Z,82.49
2022-12-18T02:22:52.315Z,82.47
2022-12-18T02:27:03.336Z,82.50
2022-12-18T02:31:16.334Z,82.36
2022-12-18T02:35:26.690Z,82.49
2022-12-18T02:39:35.750Z,82.35
2022-12-18T02:43:43.333Z,82.22
2022-12-18T02:47:53.085Z,82.24
2022-12-18T02:52:07.418Z,82.18
2022-12-18T02:56:18.385Z,82.30
2022-12-18T03:00:29.927Z,82.20
2022-12-18T03:04:41.465Z,82.49
2022-12-18T03:08:52.424Z,82.28
2022-12-18T03:13:04.992Z,82.30
2022-12-18T03:17:17.383Z,82.24
2022-12-18T03:21:28.715Z,82.12
2022-12-18T03:25:41.047Z,81.95
2022-12-18T03:29:53.003Z,81.99
2022-12-18T03:34:05.028Z,81.85
2022-12-18T03:38:13.912Z,81.99
2022-12-18T03:42:28.538Z,81.91
2022-12-18T03:46:44.183Z,82.01
2022-12-18T03:50:55.475Z,82.07
2022-12-18T03:55:04.354Z,82.12
2022-12-18T03:59:13.802Z,81.97
2022-12-18T04:03:26.240Z,81.93
2022-12-18T04:07:35.181Z,81.77
2022-12-18T04:11:44.811Z,81.87
2022-12-18T04:15:52.807Z,81.69
2022-12-18T04:20:00.802Z,81.59
2022-12-18T04:24:09.699Z,81.64
2022-12-18T04:28:18.805Z,81.64
2022-12-18T04:32:27.752Z,81.67
2022-12-18T04:36:35.627Z,81.41
2022-12-18T04:40:44.450Z,81.23
2022-12-18T04:44:52.394Z,81.21
2022-12-18T04:49:00.958Z,81.20
2022-12-18T04:53:09.155Z,81.18
2022-12-18T04:57:19.149Z,81.02
2022-12-18T05:01:32.556Z,81.04
2022-12-18T05:05:42.715Z,80.96
2022-12-18T05:09:50.997Z,80.99
2022-12-18T05:13:59.263Z,80.95
2022-12-18T05:18:08.000Z,81.21
2022-12-18T05:22:15.809Z,80.95
2022-12-18T05:26:24.277Z,80.95
2022-12-18T05:30:32.443Z,80.97
2022-12-18T05:34:40.204Z,81.18
2022-12-18T05:38:48.197Z,81.18
2022-12-18T05:42:56.134Z,80.99
2022-12-18T05:47:03.943Z,81.17
2022-12-18T05:51:13.995Z,81.13
2022-12-18T05:55:22.456Z,81.05
2022-12-18T05:59:30.335Z,81.05
2022-12-18T06:03:38.338Z,81.14
2022-12-18T06:07:46.572Z,81.13
2022-12-18T06:11:55.347Z,81.23
2022-12-18T06:16:06.450Z,81.41
2022-12-18T06:20:15.141Z,81.28
2022-12-18T06:24:24.213Z,81.06
2022-12-18T06:28:31.949Z,81.03
2022-12-18T06:32:40.198Z,81.14
2022-12-18T06:36:48.232Z,81.20
2022-12-18T06:40:55.867Z,80.78
2022-12-18T06:45:04.388Z,80.94
2022-12-18T06:49:12.514Z,80.74
2022-12-18T06:53:21.543Z,80.59
2022-12-18T06:57:30.507Z,80.76
2022-12-18T07:01:38.712Z,80.70
2022-12-18T07:05:46.963Z,80.89
2022-12-18T07:09:55.270Z,80.85
2022-12-18T07:14:03.384Z,80.70
2022-12-18T07:18:11.693Z,80.78
2022-12-18T07:22:20.043Z,80.89
2022-12-18T07:26:28.471Z,80.69
2022-12-18T07:30:36.533Z,81.00
2022-12-18T07:34:44.347Z,81.14
2022-12-18T07:38:53.939Z,81.11
2022-12-18T07:43:01.447Z,81.22
2022-12-18T07:47:12.255Z,80.99
2022-12-18T07:51:21.029Z,80.94
2022-12-18T07:55:35.322Z,80.91
2022-12-18T07:59:51.137Z,80.90
2022-12-18T08:03:59.368Z,81.18
2022-12-18T08:08:07.185Z,81.15
2022-12-18T08:12:14.950Z,81.24
2022-12-18T08:16:23.505Z,80.82
2022-12-18T08:20:32.401Z,80.87
2022-12-18T08:24:40.712Z,80.95
2022-12-18T08:28:48.595Z,80.44
2022-12-18T08:32:57.476Z,80.09
2022-12-18T08:37:05.618Z,79.82
2022-12-18T08:41:15.460Z,80.10
2022-12-18T08:45:23.825Z,79.28
2022-12-18T08:49:32.187Z,79.24
2022-12-18T08:53:40.280Z,79.54
2022-12-18T08:57:52.350Z,79.82
2022-12-18T09:02:00.332Z,79.19
2022-12-18T09:06:09.992Z,79.27
2022-12-18T09:10:18.819Z,79.31
2022-12-18T09:14:30.154Z,78.81
2022-12-18T09:18:38.356Z,78.81
2022-12-18T09:22:46.757Z,78.69
2022-12-18T09:26:58.074Z,78.61
2022-12-18T09:31:10.502Z,78.58
2022-12-18T09:35:18.797Z,78.10
2022-12-18T09:39:26.386Z,78.28
2022-12-18T09:43:40.230Z,78.17
2022-12-18T09:47:50.066Z,78.20
2022-12-18T09:52:02.693Z,78.29
2022-12-18T09:56:19.532Z,78.31
2022-12-18T10:00:28.837Z,78.22
2022-12-18T10:04:37.433Z,78.49
2022-12-18T10:08:49.274Z,78.12
2022-12-18T10:13:04.750Z,78.31
2022-12-18T10:17:21.516Z,78.55
2022-12-18T10:21:34.857Z,78.64
2022-12-18T10:25:54.596Z,79.19
2022-12-18T10:30:03.550Z,78.86
2022-12-18T10:34:14.142Z,78.57
2022-12-18T10:38:30.396Z,78.46
2022-12-18T10:42:38.769Z,78.70
2022-12-18T10:46:46.550Z,78.90
2022-12-18T10:51:12.896Z,79.10
2022-12-18T10:55:23.470Z,78.84
2022-12-18T10:59:31.655Z,78.47
2022-12-18T11:03:41.113Z,78.32
2022-12-18T11:07:55.225Z,78.25
2022-12-18T11:12:04.417Z,78.52
2022-12-18T11:16:22.736Z,78.49
2022-12-18T11:20:35.399Z,78.29
2022-12-18T11:24:43.564Z,78.32
2022-12-18T11:28:55.759Z,78.64
2022-12-18T11:33:08.981Z,78.52
2022-12-18T11:37:20.312Z,78.83
2022-12-18T11:41:45.260Z,78.50
2022-12-18T11:46:02.221Z,78.78
2022-12-18T11:50:20.378Z,78.90
2022-12-18T11:54:28.143Z,78.88
2022-12-18T11:58:47.873Z,78.96
2022-12-18T12:03:18.513Z,78.88
2022-12-18T12:07:35.714Z,78.59
2022-12-18T12:11:51.252Z,78.56
2022-12-18T12:16:09.100Z,79.08
2022-12-18T12:20:24.070Z,78.76
2022-12-18T12:24:43.049Z,78.76
2022-12-18T12:29:05.469Z,79.04
2022-12-18T12:33:25.860Z,78.82
2022-12-18T12:37:43.611Z,78.47
2022-12-18T12:42:09.020Z,78.29
2022-12-18T12:46:19.253Z,78.09
2022-12-18T12:50:27.777Z,77.76
2022-12-18T12:54:37.637Z,77.65
2022-12-18T12:58:52.351Z,77.97
2022-12-18T13:03:07.739Z,77.86
2022-12-18T13:07:20.609Z,77.92
2022-12-18T13:12:00.439Z,78.06
2022-12-18T13:16:11.679Z,77.76
2022-12-18T13:20:22.136Z,78.32
2022-12-18T13:24:33.422Z,78.44
2022-12-18T13:29:05.578Z,78.65
2022-12-18T13:34:16.625Z,78.51
2022-12-18T13:38:25.968Z,78.55
2022-12-18T13:43:07.837Z,78.52
2022-12-18T13:47:30.929Z,78.07
2022-12-18T13:51:39.460Z,77.99
2022-12-18T13:55:49.443Z,78.22
2022-12-18T13:59:58.337Z,78.13
2022-12-18T14:04:32.569Z,78.04
2022-12-18T14:08:43.256Z,78.02
2022-12-18T14:13:05.941Z,78.26
2022-12-18T14:17:16.743Z,78.81
2022-12-18T14:21:31.240Z,79.38
2022-12-18T14:25:39.149Z,79.61
2022-12-18T14:29:48.822Z,79.77
2022-12-18T14:33:58.062Z,79.88
2022-12-18T14:38:30.041Z,79.99
2022-12-18T14:42:38.116Z,79.92
2022-12-18T14:46:47.213Z,80.11
2022-12-18T14:51:04.962Z,80.41
2022-12-18T14:55:20.600Z,80.50
2022-12-18T14:59:29.350Z,80.70
2022-12-18T15:03:37.451Z,80.70
2022-12-18T15:07:47.130Z,80.80
2022-12-18T15:11:59.771Z,80.90
2022-12-18T15:16:07.981Z,80.92
2022-12-18T15:20:17.347Z,80.95
2022-12-18T15:24:29.658Z,81.02
2022-12-18T15:28:40.530Z,80.92
2022-12-18T15:32:50.125Z,80.79
2022-12-18T15:36:58.023Z,80.71
2022-12-18T15:41:08.954Z,81.15
2022-12-18T15:45:21.484Z,81.46
2022-12-18T15:49:31.326Z,81.46
2022-12-18T15:53:40.652Z,81.86
2022-12-18T15:57:49.084Z,81.83
2022-12-18T16:01:57.285Z,82.17
2022-12-18T16:06:07.655Z,82.57
2022-12-18T16:10:15.555Z,83.16
2022-12-18T16:14:27.128Z,83.54
2022-12-18T16:18:35.103Z,84.14
2022-12-18T16:22:43.413Z,84.26
2022-12-18T16:26:53.713Z,84.36
2022-12-18T16:31:01.707Z,84.50
2022-12-18T16:35:12.448Z,84.46
2022-12-18T16:39:20.315Z,84.85
2022-12-18T16:43:27.942Z,85.38
2022-12-18T16:47:35.693Z,85.47
2022-12-18T16:51:46.430Z,85.51
2022-12-18T16:56:00.368Z,85.45
2022-12-18T17:00:10.051Z,85.44
2022-12-18T17:04:18.585Z,85.38
2022-12-18T17:08:26.150Z,85.08
2022-12-18T17:12:33.861Z,85.19
2022-12-18T17:16:46.922Z,85.29
2022-12-18T17:20:57.556Z,84.89
2022-12-18T17:25:05.596Z,84.89
2022-12-18T17:29:13.350Z,84.60
2022-12-18T17:33:21.253Z,84.23
2022-12-18T17:37:29.423Z,83.92
2022-12-18T17:41:37.484Z,83.62
2022-12-18T17:45:44.962Z,83.39
2022-12-18T17:49:53.083Z,82.96
2022-12-18T17:54:03.753Z,82.82
2022-12-18T17:58:11.889Z,82.54
2022-12-18T18:02:19.739Z,82.32
2022-12-18T18:06:28.038Z,82.49
2022-12-18T18:10:39.446Z,82.56
2022-12-18T18:14:47.537Z,82.71
2022-12-18T18:18:55.211Z,82.79
2022-12-18T18:23:04.146Z,82.65
2022-12-18T18:27:12.806Z,82.54
2022-12-18T18:31:20.617Z,82.53
2022-12-18T18:35:53.253Z,82.63
2022-12-18T18:39:58.467Z,82.46
2022-12-18T18:44:07.004Z,82.55
2022-12-18T18:48:15.451Z,82.67
2022-12-18T18:52:23.336Z,82.64
2022-12-18T19:01:01.499Z,82.83
2022-12-18T19:05:10.529Z,82.50
2022-12-18T19:09:19.523Z,82.44
2022-12-18T19:13:28.796Z,82.57
2022-12-18T19:17:37.533Z,82.49
2022-12-18T19:21:46.252Z,82.38
2022-12-18T19:26:10.317Z,82.49
2022-12-18T19:30:22.985Z,82.44
2022-12-18T19:34:30.993Z,82.73
2022-12-18T19:38:39.391Z,82.77
2022-12-18T19:42:54.406Z,82.89
2022-12-18T19:47:02.821Z,82.84
2022-12-18T19:51:12.712Z,83.08
2022-12-18T19:55:20.993Z,82.90
2022-12-18T19:59:28.747Z,82.88
2022-12-18T20:03:36.925Z,82.79
2022-12-18T20:07:44.757Z,82.80
2022-12-18T20:11:52.775Z,82.73
2022-12-18T20:16:00.978Z,82.89
2022-12-18T20:20:11.542Z,82.99
2022-12-18T20:24:21.853Z,83.01
2022-12-18T20:28:30.904Z,82.97
2022-12-18T20:32:39.049Z,82.91
2022-12-18T20:36:49.046Z,83.02
2022-12-18T20:40:57.560Z,82.91
2022-12-18T20:45:07.191Z,82.89
2022-12-18T20:49:15.610Z,82.98
2022-12-18T20:53:23.316Z,82.99
2022-12-18T20:57:31.498Z,83.07
2022-12-18T21:01:40.019Z,83.26
2022-12-18T21:05:55.547Z,83.10
2022-12-18T21:10:03.570Z,83.05
2022-12-18T21:14:13.965Z,82.97
2022-12-18T21:18:25.928Z,82.82
2022-12-18T21:22:39.413Z,82.80
2022-12-18T21:26:48.695Z,83.03
2022-12-18T21:30:56.661Z,83.13
2022-12-18T21:35:05.153Z,83.41
2022-12-18T21:39:13.231Z,83.50
2022-12-18T21:43:39.168Z,83.43
2022-12-18T21:47:48.306Z,83.62
2022-12-18T21:51:57.873Z,83.52
2022-12-18T21:56:06.715Z,83.59
2022-12-18T22:00:19.048Z,83.70
2022-12-18T22:04:27.543Z,84.06
2022-12-18T22:08:35.523Z,84.23
2022-12-18T22:12:48.995Z,84.24
2022-12-18T22:16:57.702Z,84.07
2022-12-18T22:21:07.890Z,83.87
2022-12-18T22:25:15.934Z,83.73
2022-12-18T22:29:43.316Z,83.54
2022-12-18T22:33:51.613Z,83.44
2022-12-18T22:38:01.228Z,83.26
2022-12-18T22:42:10.685Z,83.40
2022-12-18T22:46:20.226Z,83.62
2022-12-18T22:50:28.134Z,83.55
2022-12-18T22:54:35.791Z,83.39
2022-12-18T22:58:44.379Z,83.23
2022-12-18T23:02:59.320Z,83.01
2022-12-18T23:07:09.019Z,82.86
2022-12-18T23:11:21.355Z,82.77
2022-12-18T23:15:29.351Z,82.78
2022-12-18T23:19:37.359Z,82.53
2022-12-18T23:23:47.523Z,82.51
2022-12-18T23:27:56.357Z,82.42
2022-12-18T23:32:04.098Z,82.43
2022-12-18T23:36:12.667Z,82.45
2022-12-18T23:40:20.905Z,82.36
2022-12-18T23:44:29.693Z,82.35
2022-12-18T23:48:37.193Z,82.19
2022-12-18T23:52:45.163Z,82.19
2022-12-18T23:56:53.268Z,82.17
